createdAt,value
2018-08-23T00:01:06.149Z,22.20
2018-08-23T00:03:40.767Z,22.00
2018-08-23T00:06:13.812Z,21.90
2018-08-23T00:08:50.873Z,21.80
2018-08-23T00:11:31.025Z,21.80
2018-08-23T00:14:04.382Z,21.90
2018-08-23T00:16:42.177Z,21.80
2018-08-23T00:19:15.094Z,21.70
2018-08-23T00:21:50.723Z,21.70
2018-08-23T00:24:26.536Z,21.50
2018-08-23T00:27:01.798Z,21.40
2018-08-23T00:29:35.477Z,21.30
2018-08-23T00:32:09.824Z,21.10
2018-08-23T00:34:43.912Z,21.10
2018-08-23T00:37:16.913Z,21.10
2018-08-23T00:39:50.929Z,20.90
2018-08-23T00:42:23.970Z,20.80
2018-08-23T00:45:03.382Z,20.80
2018-08-23T00:47:36.508Z,20.80
2018-08-23T00:50:09.838Z,20.90
2018-08-23T00:52:50.838Z,20.90
2018-08-23T00:55:28.152Z,20.80
2018-08-23T00:58:00.814Z,20.70
2018-08-23T01:00:33.347Z,20.60
2018-08-23T01:03:06.889Z,20.70
2018-08-23T01:05:40.617Z,20.50
2018-08-23T01:08:14.304Z,20.50
2018-08-23T01:10:47.483Z,20.40
2018-08-23T01:13:20.139Z,20.40
2018-08-23T01:15:52.690Z,20.30
2018-08-23T01:21:56.671Z,20.40
2018-08-23T01:24:33.842Z,20.40
2018-08-23T01:27:08.428Z,20.30
2018-08-23T01:29:46.168Z,20.20
2018-08-23T01:32:23.517Z,20.10
2018-08-23T01:34:56.673Z,20.00
2018-08-23T01:37:44.980Z,19.90
2018-08-23T01:40:18.120Z,19.90
2018-08-23T01:42:51.912Z,19.80
2018-08-23T01:45:25.077Z,19.90
2018-08-23T01:47:59.281Z,19.80
2018-08-23T01:50:33.168Z,19.80
2018-08-23T01:53:06.702Z,19.70
2018-08-23T01:55:39.737Z,19.60
2018-08-23T01:58:13.650Z,19.70
2018-08-23T02:00:48.266Z,19.60
2018-08-23T02:03:22.705Z,19.60
2018-08-23T02:05:55.904Z,19.60
2018-08-23T02:08:29.757Z,19.50
2018-08-23T02:11:03.829Z,19.50
2018-08-23T02:13:37.707Z,19.50
2018-08-23T02:16:11.167Z,19.50
2018-08-23T02:18:44.890Z,19.40
2018-08-23T02:21:18.569Z,19.40
2018-08-23T02:23:55.191Z,19.40
2018-08-23T02:26:30.093Z,19.30
2018-08-23T02:29:03.710Z,19.30
2018-08-23T02:31:39.665Z,19.30
2018-08-23T02:34:19.877Z,19.30
2018-08-23T02:36:57.692Z,19.20
2018-08-23T02:39:31.023Z,19.20
2018-08-23T02:42:05.038Z,19.10
2018-08-23T02:44:39.702Z,19.10
2018-08-23T02:47:14.081Z,19.10
2018-08-23T02:49:47.735Z,19.00
2018-08-23T02:52:21.696Z,19.00
2018-08-23T02:54:55.761Z,19.10
2018-08-23T02:57:31.846Z,19.00
2018-08-23T03:00:05.341Z,19.00
2018-08-23T03:02:39.732Z,19.00
2018-08-23T03:05:29.136Z,19.00
2018-08-23T03:08:32.266Z,19.00
2018-08-23T03:11:05.058Z,19.10
2018-08-23T03:13:42.147Z,19.00
2018-08-23T03:16:25.604Z,19.10
2018-08-23T03:18:58.941Z,19.10
2018-08-23T03:21:33.060Z,19.10
2018-08-23T03:24:05.882Z,18.90
2018-08-23T03:30:12.965Z,18.90
2018-08-23T03:32:47.144Z,18.90
2018-08-23T03:35:23.493Z,18.90
2018-08-23T03:37:58.091Z,18.90
2018-08-23T03:40:31.536Z,18.90
2018-08-23T03:43:04.999Z,18.80
2018-08-23T03:45:38.841Z,18.80
2018-08-23T03:48:12.806Z,18.90
2018-08-23T03:50:50.834Z,18.80
2018-08-23T03:53:25.274Z,18.80
2018-08-23T03:56:09.195Z,18.70
2018-08-23T03:58:43.142Z,18.70
2018-08-23T04:01:18.831Z,18.70
2018-08-23T04:03:53.323Z,18.70
2018-08-23T04:06:36.557Z,18.70
2018-08-23T04:09:12.750Z,18.70
2018-08-23T04:11:46.326Z,18.70
2018-08-23T04:14:19.810Z,18.60
2018-08-23T04:16:53.890Z,18.60
2018-08-23T04:19:30.090Z,18.50
2018-08-23T04:22:03.850Z,18.50
2018-08-23T04:24:39.306Z,18.40
2018-08-23T04:27:13.726Z,18.40
2018-08-23T04:29:50.034Z,18.40
2018-08-23T04:32:33.475Z,18.40
2018-08-23T04:35:13.145Z,18.30
2018-08-23T04:37:46.906Z,18.30
2018-08-23T04:40:23.835Z,18.30
2018-08-23T04:43:00.472Z,18.20
2018-08-23T04:45:39.188Z,18.20
2018-08-23T04:48:15.423Z,18.10
2018-08-23T04:50:51.088Z,18.00
2018-08-23T04:53:26.123Z,18.00
2018-08-23T04:55:59.526Z,17.90
2018-08-23T04:58:33.501Z,17.90
2018-08-23T05:01:07.006Z,17.90
2018-08-23T05:07:01.133Z,17.90
2018-08-23T05:12:54.731Z,17.80
2018-08-23T05:15:27.734Z,17.70
2018-08-23T05:18:00.383Z,17.70
2018-08-23T05:20:33.211Z,17.60
2018-08-23T05:23:05.847Z,17.60
2018-08-23T05:25:38.291Z,17.60
2018-08-23T05:28:22.136Z,17.60
2018-08-23T05:37:40.484Z,17.70
2018-08-23T05:40:13.069Z,17.70
2018-08-23T05:42:56.486Z,17.80
2018-08-23T05:45:39.659Z,17.80
2018-08-23T05:48:26.127Z,17.70
2018-08-23T05:50:59.312Z,17.70
2018-08-23T05:53:33.010Z,17.70
2018-08-23T05:56:05.616Z,17.60
2018-08-23T05:58:38.289Z,17.60
2018-08-23T06:01:11.218Z,17.60
2018-08-23T06:03:44.176Z,17.50
2018-08-23T06:06:16.916Z,17.50
2018-08-23T06:08:56.897Z,17.60
2018-08-23T06:11:30.009Z,17.60
2018-08-23T06:14:02.430Z,17.60
2018-08-23T06:16:46.941Z,17.60
2018-08-23T06:19:20.205Z,17.50
2018-08-23T06:21:53.087Z,17.40
2018-08-23T06:24:29.871Z,17.40
2018-08-23T06:27:05.589Z,17.30
2018-08-23T06:29:38.048Z,17.30
2018-08-23T06:32:12.115Z,17.20
2018-08-23T06:34:52.732Z,17.20
2018-08-23T06:37:26.661Z,17.20
2018-08-23T06:39:59.724Z,17.20
2018-08-23T06:42:46.393Z,17.20
2018-08-23T06:45:18.878Z,17.20
2018-08-23T06:47:56.190Z,17.20
2018-08-23T06:50:29.119Z,17.20
2018-08-23T06:53:02.121Z,17.20
2018-08-23T06:55:37.022Z,17.20
2018-08-23T06:58:09.531Z,17.30
2018-08-23T07:00:42.101Z,17.30
2018-08-23T07:03:14.637Z,17.30
2018-08-23T07:05:47.575Z,17.30
2018-08-23T07:08:20.149Z,17.30
2018-08-23T07:10:55.243Z,17.30
2018-08-23T07:13:27.755Z,17.30
2018-08-23T07:16:02.779Z,17.30
2018-08-23T07:18:35.624Z,17.40
2018-08-23T07:21:10.213Z,17.40
2018-08-23T07:23:42.755Z,17.30
2018-08-23T07:26:15.482Z,17.30
2018-08-23T07:28:48.597Z,17.30
2018-08-23T07:31:21.090Z,17.30
2018-08-23T07:33:54.271Z,17.40
2018-08-23T07:36:33.492Z,17.50
2018-08-23T07:39:06.547Z,17.40
2018-08-23T07:41:39.150Z,17.50
2018-08-23T07:44:11.721Z,17.50
2018-08-23T07:46:46.383Z,17.50
2018-08-23T07:49:19.450Z,17.50
2018-08-23T07:51:54.217Z,17.50
2018-08-23T07:54:27.141Z,17.50
2018-08-23T07:57:00.147Z,17.50
2018-08-23T07:59:33.914Z,17.50
2018-08-23T08:02:07.930Z,17.50
2018-08-23T08:04:41.102Z,17.50
2018-08-23T08:07:18.706Z,17.40
2018-08-23T08:09:51.937Z,17.40
2018-08-23T08:12:33.994Z,17.40
2018-08-23T08:15:06.960Z,17.50
2018-08-23T08:17:39.490Z,17.50
2018-08-23T08:20:12.927Z,17.50
2018-08-23T08:23:26.494Z,17.40
2018-08-23T08:25:59.977Z,17.40
2018-08-23T08:28:32.799Z,17.30
2018-08-23T08:31:05.351Z,17.20
2018-08-23T08:37:09.853Z,17.20
2018-08-23T08:39:43.154Z,17.30
2018-08-23T08:42:17.488Z,17.30
2018-08-23T08:44:51.868Z,17.40
2018-08-23T08:47:25.520Z,17.40
2018-08-23T08:49:58.743Z,17.30
2018-08-23T08:52:32.513Z,17.30
2018-08-23T08:55:06.934Z,17.20
2018-08-23T08:57:45.013Z,17.20
2018-08-23T09:00:18.733Z,17.20
2018-08-23T09:02:52.202Z,17.20
2018-08-23T09:05:25.641Z,17.20
2018-08-23T09:07:59.381Z,17.10
2018-08-23T09:13:52.759Z,17.20
2018-08-23T09:16:26.517Z,17.20
2018-08-23T09:19:05.066Z,17.30
2018-08-23T09:21:37.521Z,17.30
2018-08-23T09:24:25.644Z,17.20
2018-08-23T09:26:59.124Z,17.10
2018-08-23T09:29:40.007Z,17.10
2018-08-23T09:35:45.025Z,17.10
2018-08-23T09:38:18.476Z,17.10
2018-08-23T09:40:52.200Z,17.10
2018-08-23T09:43:24.777Z,17.20
2018-08-23T09:45:57.999Z,17.10
2018-08-23T09:48:30.660Z,17.10
2018-08-23T09:51:04.555Z,17.10
2018-08-23T09:57:09.503Z,17.10
2018-08-23T09:59:44.209Z,17.10
2018-08-23T10:02:21.231Z,17.10
2018-08-23T10:04:57.489Z,17.00
2018-08-23T10:07:34.989Z,17.00
2018-08-23T10:10:11.958Z,17.00
2018-08-23T10:12:48.778Z,17.10
2018-08-23T10:15:25.794Z,17.00
2018-08-23T10:18:03.162Z,17.00
2018-08-23T10:20:45.888Z,17.10
2018-08-23T10:23:25.419Z,17.10
2018-08-23T10:25:59.464Z,17.10
2018-08-23T10:28:36.452Z,17.10
2018-08-23T10:31:09.293Z,17.20
2018-08-23T10:33:41.816Z,17.10
2018-08-23T10:36:14.207Z,17.10
2018-08-23T10:38:46.492Z,17.10
2018-08-23T10:41:18.848Z,17.20
2018-08-23T10:43:51.180Z,17.10
2018-08-23T10:46:23.525Z,17.10
2018-08-23T10:48:55.885Z,17.10
2018-08-23T10:51:28.814Z,17.10
2018-08-23T10:54:01.360Z,17.10
2018-08-23T10:56:34.730Z,17.10
2018-08-23T10:59:07.403Z,17.00
2018-08-23T11:01:40.638Z,17.00
2018-08-23T11:04:13.538Z,17.10
2018-08-23T11:06:50.153Z,17.10
2018-08-23T11:09:27.316Z,17.10
2018-08-23T11:11:59.788Z,17.00
2018-08-23T11:14:37.310Z,17.00
2018-08-23T11:17:14.639Z,17.00
2018-08-23T11:20:52.097Z,17.00
2018-08-23T11:23:27.517Z,17.00
2018-08-23T11:26:00.514Z,17.00
2018-08-23T11:28:33.279Z,17.00
2018-08-23T11:31:05.564Z,16.90
2018-08-23T11:33:37.903Z,16.90
2018-08-23T11:36:09.744Z,16.80
2018-08-23T11:38:42.345Z,16.80
2018-08-23T11:41:14.853Z,16.80
2018-08-23T11:43:47.653Z,16.80
2018-08-23T11:49:46.945Z,16.80
2018-08-23T11:55:40.687Z,16.90
2018-08-23T11:58:13.965Z,16.90
2018-08-23T12:00:47.515Z,16.90
2018-08-23T12:03:20.772Z,16.80
2018-08-23T12:05:53.941Z,16.90
2018-08-23T12:08:27.464Z,16.80
2018-08-23T12:11:00.811Z,16.90
2018-08-23T12:13:34.047Z,16.90
2018-08-23T12:16:11.154Z,17.00
2018-08-23T12:18:44.462Z,17.10
2018-08-23T12:21:17.237Z,17.20
2018-08-23T12:23:50.672Z,17.20
2018-08-23T12:26:23.434Z,17.20
2018-08-23T12:29:01.539Z,17.20
2018-08-23T12:31:34.354Z,17.20
2018-08-23T12:34:10.440Z,17.30
2018-08-23T12:36:47.557Z,17.30
2018-08-23T12:39:24.521Z,17.30
2018-08-23T12:42:02.680Z,17.30
2018-08-23T12:44:37.576Z,17.40
2018-08-23T12:47:12.075Z,17.30
2018-08-23T12:49:50.509Z,17.40
2018-08-23T12:52:25.855Z,17.40
2018-08-23T12:54:58.668Z,17.50
2018-08-23T12:57:33.882Z,17.40
2018-08-23T13:00:07.732Z,17.50
2018-08-23T13:02:40.692Z,17.60
2018-08-23T13:05:18.638Z,17.60
2018-08-23T13:07:54.149Z,17.50
2018-08-23T13:10:32.475Z,17.60
2018-08-23T13:13:15.148Z,17.70
2018-08-23T13:15:48.064Z,17.80
2018-08-23T13:18:56.991Z,17.80
2018-08-23T13:21:29.199Z,17.80
2018-08-23T13:24:01.498Z,17.70
2018-08-23T13:26:40.821Z,17.70
2018-08-23T13:29:13.434Z,17.70
2018-08-23T13:31:45.739Z,18.00
2018-08-23T13:34:18.122Z,18.10
2018-08-23T13:36:50.431Z,18.10
2018-08-23T13:39:22.742Z,18.20
2018-08-23T13:41:55.247Z,18.10
2018-08-23T13:44:27.404Z,18.20
2018-08-23T13:46:59.695Z,18.20
2018-08-23T13:49:32.433Z,18.50
2018-08-23T13:52:04.973Z,19.30
2018-08-23T13:54:37.992Z,19.30
2018-08-23T13:57:10.164Z,19.60
2018-08-23T13:59:42.352Z,19.60
2018-08-23T14:02:15.209Z,19.20
2018-08-23T14:04:50.649Z,19.20
2018-08-23T14:07:23.356Z,19.10
2018-08-23T14:09:55.638Z,19.30
2018-08-23T14:12:27.800Z,19.60
2018-08-23T14:15:03.529Z,19.90
2018-08-23T14:17:35.829Z,20.80
2018-08-23T14:20:10.929Z,21.40
2018-08-23T14:22:43.229Z,20.80
2018-08-23T14:25:24.696Z,20.10
2018-08-23T14:27:57.953Z,19.80
2018-08-23T14:30:30.758Z,19.40
2018-08-23T14:33:03.092Z,19.40
2018-08-23T14:35:39.522Z,19.70
2018-08-23T14:38:11.723Z,20.10
2018-08-23T14:40:44.409Z,20.10
2018-08-23T14:43:16.743Z,20.10
2018-08-23T14:45:49.059Z,20.10
2018-08-23T14:48:22.353Z,20.20
2018-08-23T14:50:55.611Z,20.50
2018-08-23T14:53:29.257Z,20.60
2018-08-23T14:56:05.923Z,20.80
2018-08-23T14:58:39.009Z,21.00
2018-08-23T15:01:11.666Z,21.50
2018-08-23T15:03:50.877Z,21.70
2018-08-23T15:06:23.886Z,21.80
2018-08-23T15:08:57.269Z,21.10
2018-08-23T15:11:30.080Z,21.00
2018-08-23T15:14:03.223Z,21.00
2018-08-23T15:16:35.547Z,21.00
2018-08-23T15:19:08.421Z,21.00
2018-08-23T15:21:46.875Z,21.00
2018-08-23T15:24:21.999Z,20.90
2018-08-23T15:26:55.968Z,20.90
2018-08-23T15:29:28.357Z,21.10
2018-08-23T15:32:00.618Z,21.20
2018-08-23T15:34:34.335Z,21.40
2018-08-23T15:37:24.057Z,21.50
2018-08-23T15:39:56.799Z,21.30
2018-08-23T15:42:29.312Z,21.30
2018-08-23T15:45:01.769Z,21.20
2018-08-23T15:47:34.606Z,20.80
2018-08-23T15:50:06.905Z,21.00
2018-08-23T15:52:39.171Z,21.20
2018-08-23T15:55:11.819Z,21.30
2018-08-23T15:57:44.471Z,21.20
2018-08-23T16:00:17.208Z,21.20
2018-08-23T16:02:51.298Z,21.10
2018-08-23T16:05:23.664Z,21.20
2018-08-23T16:07:55.899Z,21.30
2018-08-23T16:10:28.719Z,21.20
2018-08-23T16:13:08.337Z,21.50
2018-08-23T16:15:44.047Z,21.80
2018-08-23T16:18:24.488Z,21.60
2018-08-23T16:21:02.355Z,21.40
2018-08-23T16:23:35.061Z,21.50
2018-08-23T16:26:09.123Z,21.40
2018-08-23T16:28:42.019Z,22.30
2018-08-23T16:31:15.841Z,22.30
2018-08-23T16:33:48.117Z,22.80
2018-08-23T16:36:22.663Z,23.60
2018-08-23T16:38:55.323Z,23.50
2018-08-23T16:41:28.826Z,23.60
2018-08-23T16:44:02.643Z,23.70
2018-08-23T16:47:05.430Z,25.00
2018-08-23T16:49:38.270Z,25.50
2018-08-23T16:52:10.867Z,25.40
2018-08-23T16:54:43.221Z,24.10
2018-08-23T16:57:42.905Z,23.80
2018-08-23T17:00:35.322Z,23.90
2018-08-23T17:03:18.184Z,23.80
2018-08-23T17:05:52.223Z,24.10
2018-08-23T17:08:24.926Z,24.60
2018-08-23T17:10:57.543Z,24.50
2018-08-23T17:13:34.331Z,23.90
2018-08-23T17:16:11.573Z,24.70
2018-08-23T17:18:43.908Z,25.40
2018-08-23T17:21:17.548Z,24.40
2018-08-23T17:23:50.711Z,23.60
2018-08-23T17:26:23.137Z,24.10
2018-08-23T17:29:01.469Z,24.60
2018-08-23T17:31:36.151Z,25.70
2018-08-23T17:34:10.040Z,26.00
2018-08-23T17:36:49.146Z,24.90
2018-08-23T17:39:26.255Z,24.40
2018-08-23T17:42:00.105Z,25.30
2018-08-23T17:44:34.323Z,24.90
2018-08-23T17:47:10.420Z,24.90
2018-08-23T17:49:43.151Z,25.10
2018-08-23T17:52:18.592Z,24.40
2018-08-23T17:54:51.371Z,24.50
2018-08-23T17:57:24.049Z,24.90
2018-08-23T17:59:56.271Z,26.00
2018-08-23T18:02:28.658Z,26.20
2018-08-23T18:05:00.821Z,26.60
2018-08-23T18:07:32.994Z,26.90
2018-08-23T18:10:05.593Z,26.50
2018-08-23T18:12:38.047Z,26.80
2018-08-23T18:15:12.287Z,25.50
2018-08-23T18:17:44.578Z,24.90
2018-08-23T18:20:17.279Z,25.00
2018-08-23T18:22:49.773Z,24.90
2018-08-23T18:25:22.198Z,24.10
2018-08-23T18:27:59.612Z,24.80
2018-08-23T18:30:37.174Z,26.20
2018-08-23T18:33:09.599Z,26.10
2018-08-23T18:35:44.511Z,25.70
2018-08-23T18:38:16.942Z,25.20
2018-08-23T18:40:50.448Z,26.20
2018-08-23T18:43:23.749Z,26.60
2018-08-23T18:45:56.129Z,26.50
2018-08-23T18:48:29.306Z,26.50
2018-08-23T18:51:02.107Z,27.00
2018-08-23T18:56:56.652Z,27.00
2018-08-23T18:59:29.957Z,26.60
2018-08-23T19:02:03.473Z,26.70
2018-08-23T19:04:37.584Z,26.60
2018-08-23T19:07:29.391Z,25.50
2018-08-23T19:10:03.276Z,25.70
2018-08-23T19:12:37.193Z,26.10
2018-08-23T19:15:11.385Z,26.40
2018-08-23T19:17:45.792Z,26.00
2018-08-23T19:20:19.640Z,25.60
2018-08-23T19:22:52.931Z,25.50
2018-08-23T19:25:26.222Z,25.80
2018-08-23T19:28:17.992Z,25.50
2018-08-23T19:30:50.886Z,25.40
2018-08-23T19:33:24.275Z,25.80
2018-08-23T19:35:58.681Z,26.20
2018-08-23T19:38:32.084Z,26.70
2018-08-23T19:41:05.286Z,27.10
2018-08-23T19:43:38.517Z,26.90
2018-08-23T19:46:17.112Z,26.70
2018-08-23T19:48:54.971Z,26.50
2018-08-23T19:51:29.174Z,26.90
2018-08-23T19:54:03.777Z,27.30
2018-08-23T19:56:37.989Z,27.30
2018-08-23T19:59:15.251Z,26.80
2018-08-23T20:01:48.652Z,26.20
2018-08-23T20:04:23.067Z,26.40
2018-08-23T20:06:56.528Z,26.50
2018-08-23T20:09:29.769Z,26.30
2018-08-23T20:15:26.819Z,25.10
2018-08-23T20:24:55.464Z,26.30
2018-08-23T20:27:36.554Z,26.30
2018-08-23T20:30:10.971Z,26.00
2018-08-23T20:33:01.349Z,25.20
2018-08-23T20:35:34.552Z,26.40
2018-08-23T20:38:07.172Z,26.20
2018-08-23T20:40:42.924Z,25.80
2018-08-23T20:43:20.530Z,25.60
2018-08-23T20:45:55.218Z,25.80
2018-08-23T20:48:36.472Z,26.20
2018-08-23T20:51:11.662Z,26.00
2018-08-23T20:53:53.790Z,26.10
2018-08-23T20:56:31.920Z,26.60
2018-08-23T20:59:13.698Z,26.50
2018-08-23T21:01:55.875Z,25.60
2018-08-23T21:04:40.515Z,25.10
2018-08-23T21:07:17.077Z,25.00
2018-08-23T21:10:00.287Z,25.30
2018-08-23T21:12:32.870Z,25.10
2018-08-23T21:15:06.306Z,24.90
2018-08-23T21:17:41.393Z,25.10
2018-08-23T21:20:15.057Z,24.90
2018-08-23T21:22:47.641Z,24.50
2018-08-23T21:25:20.284Z,24.40
2018-08-23T21:27:53.166Z,24.50
2018-08-23T21:30:25.476Z,24.50
2018-08-23T21:32:57.587Z,24.50
2018-08-23T21:35:30.767Z,24.40
2018-08-23T21:38:03.326Z,24.40
2018-08-23T21:40:35.659Z,24.40
2018-08-23T21:43:08.897Z,24.30
2018-08-23T21:45:41.207Z,24.50
2018-08-23T21:48:14.218Z,24.80
2018-08-23T21:50:46.723Z,24.50
2018-08-23T21:53:20.021Z,24.20
2018-08-23T21:55:52.133Z,24.00
2018-08-23T21:58:24.578Z,23.90
2018-08-23T22:01:01.252Z,24.10
2018-08-23T22:06:56.010Z,24.20
2018-08-23T22:09:29.315Z,24.00
2018-08-23T22:12:02.467Z,24.00
2018-08-23T22:14:35.805Z,23.80
2018-08-23T22:17:09.126Z,23.70
2018-08-23T22:19:42.506Z,23.80
2018-08-23T22:22:15.418Z,23.90
2018-08-23T22:24:48.774Z,23.70
2018-08-23T22:27:22.396Z,23.90
2018-08-23T22:29:55.672Z,23.80
2018-08-23T22:32:29.008Z,23.80
2018-08-23T22:38:22.751Z,23.50
2018-08-23T22:41:21.075Z,23.30
2018-08-23T22:43:54.217Z,23.20
2018-08-23T22:46:27.592Z,23.00
2018-08-23T22:48:59.824Z,22.80
2018-08-23T22:51:32.423Z,22.60
2018-08-23T22:54:05.286Z,22.70
2018-08-23T22:56:38.299Z,22.60
2018-08-23T22:59:11.256Z,22.60
2018-08-23T23:01:44.133Z,22.50
2018-08-23T23:04:20.940Z,22.50
2018-08-23T23:06:53.749Z,22.40
2018-08-23T23:09:26.472Z,22.40
2018-08-23T23:11:59.248Z,22.40
2018-08-23T23:14:32.129Z,22.30
2018-08-23T23:17:09.162Z,22.50
2018-08-23T23:19:42.134Z,22.40
2018-08-23T23:22:14.533Z,22.20
2018-08-23T23:24:51.797Z,22.20
2018-08-23T23:27:25.191Z,22.00
2018-08-23T23:29:58.027Z,22.00
2018-08-23T23:32:30.895Z,21.90
2018-08-23T23:35:03.830Z,22.00
2018-08-23T23:37:36.629Z,21.90
2018-08-23T23:40:09.302Z,21.80
2018-08-23T23:42:41.978Z,21.80
2018-08-23T23:45:14.983Z,21.80
2018-08-23T23:47:47.364Z,21.70
2018-08-23T23:50:20.096Z,21.70
2018-08-23T23:52:53.355Z,21.60
2018-08-23T23:55:27.823Z,21.50
2018-08-23T23:58:00.978Z,21.40
